createdAt,value
2018-01-21T00:00:11.158Z,99473.17
2018-01-21T00:01:13.642Z,99476.27
2018-01-21T00:02:16.104Z,99475.98
2018-01-21T00:03:18.562Z,99483.37
2018-01-21T00:04:21.010Z,99492.77
2018-01-21T00:05:23.462Z,99493.75
2018-01-21T00:06:25.932Z,99487.50
2018-01-21T00:07:28.390Z,99494.25
2018-01-21T00:08:30.856Z,99494.50
2018-01-21T00:09:33.331Z,99498.05
2018-01-21T00:10:35.797Z,99503.52
2018-01-21T00:11:38.249Z,99501.30
2018-01-21T00:12:40.719Z,99504.38
2018-01-21T00:13:43.200Z,99504.77
2018-01-21T00:14:45.770Z,99509.52
2018-01-21T00:15:48.304Z,99509.34
2018-01-21T00:16:50.776Z,99512.31
2018-01-21T00:17:53.264Z,99514.67
2018-01-21T00:18:55.737Z,99519.23
2018-01-21T00:19:58.186Z,99522.79
2018-01-21T00:21:00.643Z,99522.22
2018-01-21T00:22:03.097Z,99531.44
2018-01-21T00:23:05.564Z,99528.47
2018-01-21T00:24:08.030Z,99530.36
2018-01-21T00:25:10.495Z,99530.72
2018-01-21T00:26:12.954Z,99534.66
2018-01-21T00:27:15.406Z,99538.56
2018-01-21T00:28:17.869Z,99532.79
2018-01-21T00:29:20.354Z,99547.60
2018-01-21T00:30:22.824Z,99544.41
2018-01-21T00:31:25.288Z,99547.10
2018-01-21T00:32:27.742Z,99552.55
2018-01-21T00:33:30.209Z,99552.84
2018-01-21T00:34:32.675Z,99557.89
2018-01-21T00:35:35.147Z,99559.21
2018-01-21T00:36:37.615Z,99561.73
2018-01-21T00:37:40.100Z,99560.28
2018-01-21T00:38:42.568Z,99559.83
2018-01-21T00:39:45.032Z,99562.75
2018-01-21T00:40:47.506Z,99560.34
2018-01-21T00:41:49.971Z,99566.94
2018-01-21T00:42:52.435Z,99565.91
2018-01-21T00:43:54.885Z,99567.81
2018-01-21T00:44:57.344Z,99570.91
2018-01-21T00:45:59.804Z,99575.42
2018-01-21T00:47:02.249Z,99581.60
2018-01-21T00:48:04.702Z,99574.31
2018-01-21T00:49:07.153Z,99577.08
2018-01-21T00:50:09.625Z,99583.48
2018-01-21T00:51:12.100Z,99580.83
2018-01-21T00:52:14.553Z,99585.45
2018-01-21T00:53:17.024Z,99585.77
2018-01-21T00:54:19.494Z,99587.99
2018-01-21T00:55:21.956Z,99592.74
2018-01-21T00:56:24.420Z,99586.09
2018-01-21T00:57:26.869Z,99590.84
2018-01-21T00:58:29.352Z,99594.80
2018-01-21T00:59:31.816Z,99600.52
2018-01-21T01:00:34.269Z,99603.89
2018-01-21T01:01:36.740Z,99609.52
2018-01-21T01:02:39.185Z,99614.61
2018-01-21T01:03:41.659Z,99614.44
2018-01-21T01:04:44.125Z,99615.76
2018-01-21T01:05:46.597Z,99622.58
2018-01-21T01:06:49.051Z,99628.03
2018-01-21T01:07:51.529Z,99629.80
2018-01-21T01:08:53.981Z,99629.58
2018-01-21T01:09:56.449Z,99636.39
2018-01-21T01:10:58.940Z,99637.11
2018-01-21T01:12:01.394Z,99643.13
2018-01-21T01:13:03.905Z,99644.05
2018-01-21T01:14:06.396Z,99650.24
2018-01-21T01:15:08.867Z,99645.27
2018-01-21T01:16:11.327Z,99648.53
2018-01-21T01:17:13.790Z,99648.48
2018-01-21T01:18:16.246Z,99647.99
2018-01-21T01:19:18.716Z,99654.64
2018-01-21T01:20:21.182Z,99655.38
2018-01-21T01:21:23.656Z,99669.64
2018-01-21T01:22:26.109Z,99668.03
2018-01-21T01:23:28.576Z,99666.20
2018-01-21T01:24:31.031Z,99674.05
2018-01-21T01:25:33.497Z,99673.87
2018-01-21T01:26:35.966Z,99677.31
2018-01-21T01:27:38.436Z,99677.96
2018-01-21T01:28:40.901Z,99677.38
2018-01-21T01:29:43.403Z,99678.29
2018-01-21T01:30:45.876Z,99671.38
2018-01-21T01:31:48.368Z,99684.84
2018-01-21T01:32:50.826Z,99689.59
2018-01-21T01:33:53.296Z,99692.73
2018-01-21T01:34:55.752Z,99689.47
2018-01-21T01:35:58.220Z,99691.24
2018-01-21T01:37:00.682Z,99697.59
2018-01-21T01:38:03.200Z,99701.15
2018-01-21T01:39:05.673Z,99700.17
2018-01-21T01:40:08.129Z,99706.53
2018-01-21T01:41:10.577Z,99703.37
2018-01-21T01:42:13.048Z,99711.34
2018-01-21T01:43:15.508Z,99712.89
2018-01-21T01:44:17.962Z,99711.23
2018-01-21T01:45:20.413Z,99716.34
2018-01-21T01:46:22.869Z,99714.10
2018-01-21T01:47:25.339Z,99720.13
2018-01-21T01:48:27.811Z,99722.47
2018-01-21T01:49:30.279Z,99720.06
2018-01-21T01:50:32.732Z,99724.45
2018-01-21T01:51:35.220Z,99728.11
2018-01-21T01:52:37.684Z,99729.03
2018-01-21T01:53:40.142Z,99736.42
2018-01-21T01:54:42.604Z,99737.56
2018-01-21T01:55:45.070Z,99747.53
2018-01-21T01:56:47.544Z,99748.84
2018-01-21T01:57:50.012Z,99750.70
2018-01-21T01:58:52.477Z,99753.97
2018-01-21T01:59:54.930Z,99751.56
2018-01-21T02:00:57.390Z,99751.91
2018-01-21T02:01:59.860Z,99756.20
2018-01-21T02:03:02.331Z,99759.06
2018-01-21T02:04:04.800Z,99764.16
2018-01-21T02:05:07.268Z,99767.53
2018-01-21T02:06:09.742Z,99769.66
2018-01-21T02:07:12.194Z,99767.86
2018-01-21T02:08:14.732Z,99771.92
2018-01-21T02:09:17.181Z,99772.89
2018-01-21T02:10:19.651Z,99773.50
2018-01-21T02:11:22.109Z,99770.17
2018-01-21T02:12:24.577Z,99784.78
2018-01-21T02:13:27.037Z,99773.04
2018-01-21T02:14:29.482Z,99784.38
2018-01-21T02:15:31.943Z,99784.61
2018-01-21T02:16:34.411Z,99781.05
2018-01-21T02:17:36.871Z,99787.13
2018-01-21T02:18:39.333Z,99784.20
2018-01-21T02:19:41.798Z,99786.16
2018-01-21T02:20:44.250Z,99786.38
2018-01-21T02:21:46.698Z,99787.75
2018-01-21T02:22:49.149Z,99788.10
2018-01-21T02:23:51.617Z,99791.94
2018-01-21T02:24:54.067Z,99792.91
2018-01-21T02:25:56.509Z,99798.75
2018-01-21T02:26:58.959Z,99799.67
2018-01-21T02:28:01.404Z,99801.22
2018-01-21T02:29:03.862Z,99811.18
2018-01-21T02:30:06.329Z,99807.95
2018-01-21T02:31:08.781Z,99816.88
2018-01-21T02:32:11.229Z,99810.34
2018-01-21T02:33:13.709Z,99812.41
2018-01-21T02:34:16.152Z,99809.94
2018-01-21T02:35:18.615Z,99815.38
2018-01-21T02:36:21.066Z,99822.16
2018-01-21T02:37:23.518Z,99821.30
2018-01-21T02:38:25.992Z,99819.06
2018-01-21T02:39:28.481Z,99822.16
2018-01-21T02:40:30.942Z,99823.30
2018-01-21T02:41:33.393Z,99827.36
2018-01-21T02:42:35.846Z,99826.89
2018-01-21T02:43:38.312Z,99829.70
2018-01-21T02:44:40.785Z,99830.23
2018-01-21T02:45:43.246Z,99833.81
2018-01-21T02:46:45.694Z,99836.62
2018-01-21T02:47:48.164Z,99835.14
2018-01-21T02:48:50.627Z,99841.73
2018-01-21T02:49:53.096Z,99844.80
2018-01-21T02:50:55.548Z,99846.70
2018-01-21T02:51:57.998Z,99847.95
2018-01-21T02:53:00.494Z,99846.81
2018-01-21T02:54:02.958Z,99849.22
2018-01-21T02:55:05.431Z,99850.42
2018-01-21T02:56:07.964Z,99855.58
2018-01-21T02:57:10.430Z,99859.88
2018-01-21T02:58:13.253Z,99860.84
2018-01-21T02:59:15.761Z,99864.09
2018-01-21T03:00:18.228Z,99870.47
2018-01-21T03:01:20.695Z,99866.11
2018-01-21T03:02:23.177Z,99871.90
2018-01-21T03:03:25.634Z,99880.72
2018-01-21T03:04:28.098Z,99883.41
2018-01-21T03:05:30.560Z,99880.77
2018-01-21T03:06:33.039Z,99880.14
2018-01-21T03:07:35.527Z,99873.44
2018-01-21T03:08:37.991Z,99869.39
2018-01-21T03:09:40.437Z,99870.14
2018-01-21T03:10:42.895Z,99875.00
2018-01-21T03:11:45.366Z,99875.34
2018-01-21T03:12:47.868Z,99880.95
2018-01-21T03:13:50.309Z,99887.94
2018-01-21T03:14:52.903Z,99892.56
2018-01-21T03:15:55.389Z,99904.13
2018-01-21T03:16:57.854Z,99908.73
2018-01-21T03:18:00.316Z,99910.05
2018-01-21T03:19:02.787Z,99916.85
2018-01-21T03:20:05.250Z,99914.45
2018-01-21T03:21:07.706Z,99919.94
2018-01-21T03:22:10.161Z,99922.52
2018-01-21T03:23:12.623Z,99925.39
2018-01-21T03:24:15.081Z,99931.80
2018-01-21T03:25:17.529Z,99931.19
2018-01-21T03:26:19.989Z,99935.30
2018-01-21T03:27:22.446Z,99935.02
2018-01-21T03:28:24.916Z,99933.53
2018-01-21T03:29:27.386Z,99929.87
2018-01-21T03:30:29.856Z,99932.67
2018-01-21T03:31:32.334Z,99937.27
2018-01-21T03:32:34.785Z,99936.69
2018-01-21T03:33:37.237Z,99936.29
2018-01-21T03:34:39.736Z,99947.12
2018-01-21T03:35:42.211Z,99948.75
2018-01-21T03:36:44.675Z,99947.95
2018-01-21T03:37:47.130Z,99946.89
2018-01-21T03:38:49.586Z,99943.91
2018-01-21T03:39:52.038Z,99951.12
2018-01-21T03:40:54.497Z,99950.31
2018-01-21T03:41:56.952Z,99955.98
2018-01-21T03:42:59.420Z,99958.27
2018-01-21T03:44:01.884Z,99954.32
2018-01-21T03:45:04.351Z,99961.94
2018-01-21T03:46:06.815Z,99960.09
2018-01-21T03:47:09.279Z,99968.05
2018-01-21T03:48:11.734Z,99961.66
2018-01-21T03:49:14.216Z,99970.41
2018-01-21T03:50:16.672Z,99972.30
2018-01-21T03:51:19.122Z,99969.65
2018-01-21T03:52:21.588Z,99968.78
2018-01-21T03:53:24.056Z,99977.20
2018-01-21T03:54:26.509Z,99976.16
2018-01-21T03:55:28.957Z,99976.91
2018-01-21T03:56:31.684Z,99983.28
2018-01-21T03:57:34.154Z,99986.53
2018-01-21T03:58:36.619Z,99984.52
2018-01-21T03:59:39.073Z,99987.67
2018-01-21T04:00:41.530Z,99979.89
2018-01-21T04:01:44.012Z,99990.71
2018-01-21T04:02:46.461Z,99989.59
2018-01-21T04:03:48.915Z,99998.12
2018-01-21T04:04:51.370Z,99997.84
2018-01-21T04:05:53.844Z,100001.86
2018-01-21T04:06:56.310Z,99998.03
2018-01-21T04:07:58.766Z,100001.31
2018-01-21T04:09:01.222Z,100012.00
2018-01-21T04:10:03.678Z,100007.53
2018-01-21T04:11:06.153Z,100009.38
2018-01-21T04:12:08.624Z,100011.89
2018-01-21T04:13:11.094Z,100012.12
2018-01-21T04:14:13.559Z,100012.52
2018-01-21T04:15:16.021Z,100013.04
2018-01-21T04:16:18.492Z,100009.08
2018-01-21T04:17:20.954Z,100018.21
2018-01-21T04:18:23.424Z,100020.89
2018-01-21T04:19:25.886Z,100023.98
2018-01-21T04:20:28.353Z,100024.16
2018-01-21T04:21:30.824Z,100028.22
2018-01-21T04:22:33.297Z,100026.20
2018-01-21T04:23:35.778Z,100032.61
2018-01-21T04:24:38.234Z,100028.83
2018-01-21T04:25:40.689Z,100024.23
2018-01-21T04:26:43.183Z,100037.48
2018-01-21T04:27:45.646Z,100031.92
2018-01-21T04:28:48.115Z,100032.03
2018-01-21T04:29:50.588Z,100036.89
2018-01-21T04:30:53.103Z,100042.55
2018-01-21T04:31:55.562Z,100044.84
2018-01-21T04:32:58.077Z,100051.81
2018-01-21T04:34:00.558Z,100057.25
2018-01-21T04:35:03.044Z,100058.52
2018-01-21T04:36:05.502Z,100055.54
2018-01-21T04:37:07.976Z,100056.84
2018-01-21T04:38:10.448Z,100063.31
2018-01-21T04:39:12.927Z,100064.82
2018-01-21T04:40:15.401Z,100073.20
2018-01-21T04:41:17.870Z,100065.95
2018-01-21T04:42:20.344Z,100070.06
2018-01-21T04:43:22.816Z,100071.00
2018-01-21T04:44:25.287Z,100075.09
2018-01-21T04:45:27.760Z,100076.77
2018-01-21T04:46:30.246Z,100078.23
2018-01-21T04:47:32.698Z,100083.22
2018-01-21T04:48:35.153Z,100086.78
2018-01-21T04:49:37.636Z,100080.87
2018-01-21T04:50:40.090Z,100082.59
2018-01-21T04:51:42.560Z,100089.47
2018-01-21T04:52:45.067Z,100088.32
2018-01-21T04:53:47.529Z,100093.36
2018-01-21T04:54:49.994Z,100094.22
2018-01-21T04:55:52.477Z,100096.17
2018-01-21T04:56:54.943Z,100093.83
2018-01-21T04:57:57.402Z,100099.27
2018-01-21T04:58:59.858Z,100099.59
2018-01-21T05:00:02.347Z,100099.94
2018-01-21T05:01:04.804Z,100102.79
2018-01-21T05:02:07.259Z,100097.45
2018-01-21T05:03:09.718Z,100108.56
2018-01-21T05:04:12.201Z,100108.09
2018-01-21T05:05:14.653Z,100108.73
2018-01-21T05:06:17.114Z,100107.29
2018-01-21T05:07:19.573Z,100114.66
2018-01-21T05:08:22.030Z,100110.64
2018-01-21T05:09:24.515Z,100113.32
2018-01-21T05:10:26.988Z,100116.00
2018-01-21T05:11:29.460Z,100117.31
2018-01-21T05:12:31.958Z,100115.61
2018-01-21T05:13:34.414Z,100122.58
2018-01-21T05:14:36.873Z,100125.48
2018-01-21T05:15:39.344Z,100116.34
2018-01-21T05:16:41.818Z,100117.95
2018-01-21T05:17:44.315Z,100118.59
2018-01-21T05:18:46.769Z,100127.91
2018-01-21T05:19:49.257Z,100125.46
2018-01-21T05:20:51.727Z,100134.44
2018-01-21T05:21:54.203Z,100126.16
2018-01-21T05:22:56.662Z,100132.83
2018-01-21T05:23:59.118Z,100130.72
2018-01-21T05:25:01.574Z,100130.55
2018-01-21T05:26:04.029Z,100131.41
2018-01-21T05:27:06.485Z,100127.69
2018-01-21T05:28:08.938Z,100138.13
2018-01-21T05:29:11.407Z,100138.45
2018-01-21T05:30:13.873Z,100139.27
2018-01-21T05:31:16.324Z,100144.19
2018-01-21T05:32:18.816Z,100137.72
2018-01-21T05:33:21.295Z,100145.91
2018-01-21T05:34:23.763Z,100141.71
2018-01-21T05:35:26.218Z,100142.28
2018-01-21T05:36:28.677Z,100146.88
2018-01-21T05:37:31.151Z,100147.55
2018-01-21T05:38:33.622Z,100150.40
2018-01-21T05:39:36.153Z,100153.66
2018-01-21T05:40:38.623Z,100148.89
2018-01-21T05:41:41.112Z,100164.12
2018-01-21T05:42:43.584Z,100152.31
2018-01-21T05:43:46.041Z,100159.02
2018-01-21T05:44:48.497Z,100168.00
2018-01-21T05:45:50.976Z,100162.84
2018-01-21T05:46:53.442Z,100168.27
2018-01-21T05:47:55.909Z,100173.46
2018-01-21T05:48:58.362Z,100174.94
2018-01-21T05:50:00.820Z,100173.49
2018-01-21T05:51:03.298Z,100177.38
2018-01-21T05:52:05.753Z,100173.02
2018-01-21T05:53:08.215Z,100170.27
2018-01-21T05:54:10.682Z,100173.33
2018-01-21T05:55:13.264Z,100176.75
2018-01-21T05:56:15.739Z,100184.97
2018-01-21T05:57:18.197Z,100185.61
2018-01-21T05:58:20.665Z,100182.59
2018-01-21T05:59:23.135Z,100182.97
2018-01-21T06:00:25.589Z,100191.45
2018-01-21T06:01:28.065Z,100192.82
2018-01-21T06:02:30.531Z,100194.09
2018-01-21T06:03:33.001Z,100195.07
2018-01-21T06:04:35.460Z,100199.20
2018-01-21T06:05:37.943Z,100200.64
2018-01-21T06:06:40.412Z,100209.13
2018-01-21T06:07:42.864Z,100209.45
2018-01-21T06:08:45.332Z,100208.48
2018-01-21T06:09:47.806Z,100213.34
2018-01-21T06:10:50.311Z,100215.45
2018-01-21T06:11:52.769Z,100215.96
2018-01-21T06:12:55.222Z,100216.06
2018-01-21T06:13:57.692Z,100225.18
2018-01-21T06:15:00.225Z,100230.28
2018-01-21T06:16:02.707Z,100229.80
2018-01-21T06:17:05.176Z,100230.55
2018-01-21T06:18:07.655Z,100231.61
2018-01-21T06:19:10.131Z,100242.55
2018-01-21T06:20:12.606Z,100245.45
2018-01-21T06:21:15.083Z,100251.45
2018-01-21T06:22:17.547Z,100245.31
2018-01-21T06:23:20.040Z,100250.48
2018-01-21T06:24:22.498Z,100253.48
2018-01-21T06:25:24.953Z,100253.25
2018-01-21T06:26:27.421Z,100257.64
2018-01-21T06:27:29.889Z,100264.03
2018-01-21T06:28:32.359Z,100263.56
2018-01-21T06:29:34.835Z,100263.45
2018-01-21T06:30:37.314Z,100266.12
2018-01-21T06:31:39.775Z,100267.41
2018-01-21T06:32:42.268Z,100266.95
2018-01-21T06:33:44.743Z,100273.70
2018-01-21T06:34:47.205Z,100273.45
2018-01-21T06:35:49.700Z,100261.05
2018-01-21T06:36:52.161Z,100265.65
2018-01-21T06:37:54.632Z,100269.58
2018-01-21T06:38:57.102Z,100273.23
2018-01-21T06:39:59.561Z,100273.78
2018-01-21T06:41:02.014Z,100283.71
2018-01-21T06:42:04.479Z,100277.48
2018-01-21T06:43:06.940Z,100286.94
2018-01-21T06:44:09.406Z,100287.34
2018-01-21T06:45:11.883Z,100289.35
2018-01-21T06:46:14.359Z,100284.66
2018-01-21T06:47:16.833Z,100298.01
2018-01-21T06:48:19.304Z,100297.20
2018-01-21T06:49:21.771Z,100296.09
2018-01-21T06:50:24.246Z,100305.08
2018-01-21T06:51:26.697Z,100315.03
2018-01-21T06:52:29.190Z,100308.89
2018-01-21T06:53:31.646Z,100313.25
2018-01-21T06:54:34.137Z,100318.44
2018-01-21T06:55:36.603Z,100318.94
2018-01-21T06:56:39.082Z,100321.45
2018-01-21T06:57:41.606Z,100319.60
2018-01-21T06:58:44.076Z,100321.56
2018-01-21T06:59:46.531Z,100320.52
2018-01-21T07:00:48.989Z,100322.36
2018-01-21T07:01:51.453Z,100320.11
2018-01-21T07:02:53.932Z,100320.44
2018-01-21T07:03:56.400Z,100329.42
2018-01-21T07:04:58.875Z,100320.45
2018-01-21T07:06:01.337Z,100323.13
2018-01-21T07:07:03.831Z,100323.06
2018-01-21T07:08:06.294Z,100323.77
2018-01-21T07:09:08.766Z,100321.45
2018-01-21T07:10:11.264Z,100327.16
2018-01-21T07:11:13.748Z,100327.95
2018-01-21T07:12:16.217Z,100331.52
2018-01-21T07:13:18.708Z,100333.20
2018-01-21T07:14:21.183Z,100340.62
2018-01-21T07:15:23.652Z,100340.67
2018-01-21T07:16:26.151Z,100343.44
2018-01-21T07:17:28.623Z,100350.62
2018-01-21T07:18:31.131Z,100352.23
2018-01-21T07:19:33.591Z,100348.91
2018-01-21T07:20:36.048Z,100352.55
2018-01-21T07:21:38.520Z,100346.23
2018-01-21T07:22:40.973Z,100354.89
2018-01-21T07:23:43.451Z,100354.65
2018-01-21T07:24:45.928Z,100360.16
2018-01-21T07:25:48.400Z,100361.70
2018-01-21T07:26:50.877Z,100370.04
2018-01-21T07:27:53.374Z,100366.00
2018-01-21T07:28:55.825Z,100372.08
2018-01-21T07:29:58.310Z,100368.41
2018-01-21T07:31:00.770Z,100370.13
2018-01-21T07:32:03.222Z,100374.98
2018-01-21T07:33:05.695Z,100371.34
2018-01-21T07:34:08.162Z,100373.38
2018-01-21T07:35:10.626Z,100369.59
2018-01-21T07:36:13.131Z,100374.84
2018-01-21T07:37:15.586Z,100375.75
2018-01-21T07:38:18.041Z,100381.95
2018-01-21T07:39:22.048Z,100382.20
2018-01-21T07:40:24.537Z,100390.94
2018-01-21T07:41:26.990Z,100393.78
2018-01-21T07:42:33.257Z,100387.00
2018-01-21T07:43:35.784Z,100397.52
2018-01-21T07:44:38.278Z,100389.59
2018-01-21T07:45:40.779Z,100394.13
2018-01-21T07:46:43.238Z,100391.10
2018-01-21T07:47:45.708Z,100398.23
2018-01-21T07:48:48.175Z,100402.42
2018-01-21T07:49:50.629Z,100399.11
2018-01-21T07:50:53.132Z,100402.49
2018-01-21T07:51:55.609Z,100401.10
2018-01-21T07:52:58.065Z,100407.31
2018-01-21T07:54:00.529Z,100410.41
2018-01-21T07:55:02.994Z,100416.48
2018-01-21T07:56:05.458Z,100416.86
2018-01-21T07:57:07.936Z,100420.91
2018-01-21T07:58:10.408Z,100421.88
2018-01-21T07:59:12.883Z,100430.03
2018-01-21T08:00:15.342Z,100428.02
2018-01-21T08:01:17.810Z,100435.53
2018-01-21T08:02:20.328Z,100435.12
2018-01-21T08:03:22.795Z,100436.34
2018-01-21T08:04:25.272Z,100437.56
2018-01-21T08:05:27.730Z,100441.62
2018-01-21T08:06:30.185Z,100442.92
2018-01-21T08:07:32.660Z,100445.02
2018-01-21T08:08:35.118Z,100442.94
2018-01-21T08:09:37.577Z,100445.91
2018-01-21T08:10:40.038Z,100445.43
2018-01-21T08:11:42.497Z,100447.94
2018-01-21T08:12:44.973Z,100445.68
2018-01-21T08:13:47.461Z,100452.48
2018-01-21T08:14:49.946Z,100454.98
2018-01-21T08:15:52.403Z,100464.30
2018-01-21T08:16:54.875Z,100464.35
2018-01-21T08:17:57.345Z,100466.45
2018-01-21T08:18:59.816Z,100467.35
2018-01-21T08:20:02.274Z,100466.30
2018-01-21T08:21:04.730Z,100468.41
2018-01-21T08:22:07.185Z,100468.33
2018-01-21T08:23:09.656Z,100471.41
2018-01-21T08:24:12.118Z,100470.77
2018-01-21T08:25:14.600Z,100474.32
2018-01-21T08:26:17.071Z,100476.41
2018-01-21T08:27:19.548Z,100473.97
2018-01-21T08:28:22.024Z,100480.95
2018-01-21T08:29:24.493Z,100478.99
2018-01-21T08:30:26.968Z,100482.46
2018-01-21T08:31:29.439Z,100485.47
2018-01-21T08:32:31.908Z,100482.47
2018-01-21T08:33:34.383Z,100485.20
2018-01-21T08:34:42.540Z,100489.17
2018-01-21T08:35:50.608Z,100489.00
2018-01-21T08:36:58.740Z,100490.22
2018-01-21T08:38:06.776Z,100490.88
2018-01-21T08:39:14.984Z,100492.48
2018-01-21T08:40:23.147Z,100489.57
2018-01-21T08:43:10.386Z,100496.05
2018-01-21T08:44:12.850Z,100498.33
2018-01-21T08:45:15.336Z,100497.69
2018-01-21T08:46:17.835Z,100500.52
2018-01-21T08:47:20.302Z,100499.84
2018-01-21T08:48:22.759Z,100495.81
2018-01-21T08:49:25.238Z,100496.47
2018-01-21T08:50:27.724Z,100503.66
2018-01-21T08:51:30.204Z,100504.56
2018-01-21T08:52:32.678Z,100508.04
2018-01-21T08:53:35.137Z,100503.59
2018-01-21T08:54:37.594Z,100501.01
2018-01-21T08:55:40.068Z,100503.48
2018-01-21T08:56:42.544Z,100509.07
2018-01-21T08:57:45.065Z,100512.06
2018-01-21T08:58:47.509Z,100507.63
2018-01-21T08:59:50.093Z,100510.86
2018-01-21T09:00:52.671Z,100517.09
2018-01-21T09:01:55.151Z,100518.78
2018-01-21T09:02:57.626Z,100515.07
2018-01-21T09:04:00.097Z,100521.13
2018-01-21T09:05:02.573Z,100521.93
2018-01-21T09:06:05.032Z,100524.22
2018-01-21T09:07:07.490Z,100525.66
2018-01-21T09:08:09.961Z,100525.02
2018-01-21T09:09:12.459Z,100515.95
2018-01-21T09:10:14.925Z,100516.86
2018-01-21T09:11:17.389Z,100522.92
2018-01-21T09:12:19.882Z,100522.66
2018-01-21T09:13:22.345Z,100528.25
2018-01-21T09:14:24.802Z,100525.33
2018-01-21T09:15:27.266Z,100527.02
2018-01-21T09:16:29.740Z,100529.70
2018-01-21T09:17:32.209Z,100533.18
2018-01-21T09:18:34.678Z,100537.95
2018-01-21T09:19:37.138Z,100527.44
2018-01-21T09:20:39.604Z,100528.73
2018-01-21T09:21:42.085Z,100536.18
2018-01-21T09:22:44.541Z,100535.94
2018-01-21T09:23:47.002Z,100535.53
2018-01-21T09:24:49.471Z,100547.03
2018-01-21T09:25:51.926Z,100544.25
2018-01-21T09:26:54.386Z,100539.89
2018-01-21T09:27:56.855Z,100545.72
2018-01-21T09:28:59.336Z,100546.44
2018-01-21T09:30:01.818Z,100543.94
2018-01-21T09:31:04.286Z,100547.34
2018-01-21T09:32:06.756Z,100550.02
2018-01-21T09:33:09.248Z,100548.72
2018-01-21T09:34:11.780Z,100553.87
2018-01-21T09:35:14.243Z,100556.54
2018-01-21T09:36:16.700Z,100552.17
2018-01-21T09:37:19.158Z,100554.28
2018-01-21T09:38:21.619Z,100556.70
2018-01-21T09:39:24.088Z,100561.15
2018-01-21T09:40:26.564Z,100558.81
2018-01-21T09:41:29.036Z,100559.13
2018-01-21T09:42:31.540Z,100558.80
2018-01-21T09:43:34.001Z,100558.19
2018-01-21T09:44:36.457Z,100565.22
2018-01-21T09:45:38.922Z,100567.88
2018-01-21T09:46:41.388Z,100574.94
2018-01-21T09:47:43.877Z,100570.24
2018-01-21T09:48:46.348Z,100574.52
2018-01-21T09:49:48.830Z,100575.24
2018-01-21T09:50:51.286Z,100575.89
2018-01-21T09:51:53.748Z,100574.86
2018-01-21T09:52:56.248Z,100575.67
2018-01-21T09:53:58.706Z,100579.96
2018-01-21T09:55:01.163Z,100578.31
2018-01-21T09:56:03.636Z,100590.05
2018-01-21T09:57:06.143Z,100586.09
2018-01-21T09:58:08.601Z,100592.08
2018-01-21T09:59:11.074Z,100600.09
2018-01-21T10:00:13.540Z,100596.05
2018-01-21T10:01:16.012Z,100596.20
2018-01-21T10:02:18.478Z,100596.70
2018-01-21T10:03:20.983Z,100599.77
2018-01-21T10:04:23.655Z,100600.23
2018-01-21T10:05:26.135Z,100598.77
2018-01-21T10:06:28.620Z,100601.52
2018-01-21T10:07:31.090Z,100606.30
2018-01-21T10:08:33.554Z,100608.00
2018-01-21T10:09:36.038Z,100609.45
2018-01-21T10:10:38.515Z,100609.13
2018-01-21T10:11:40.986Z,100623.20
2018-01-21T10:12:43.507Z,100619.13
2018-01-21T10:13:45.965Z,100623.58
2018-01-21T10:14:48.466Z,100625.27
2018-01-21T10:15:50.926Z,100618.72
2018-01-21T10:16:53.398Z,100620.58
2018-01-21T10:17:55.871Z,100626.80
2018-01-21T10:18:58.329Z,100623.00
2018-01-21T10:20:00.793Z,100621.95
2018-01-21T10:21:03.245Z,100626.40
2018-01-21T10:22:05.698Z,100629.80
2018-01-21T10:23:08.186Z,100628.45
2018-01-21T10:24:10.686Z,100633.55
2018-01-21T10:25:13.160Z,100625.06
2018-01-21T10:26:15.624Z,100624.09
2018-01-21T10:27:18.102Z,100627.84
2018-01-21T10:28:20.576Z,100628.81
2018-01-21T10:29:23.053Z,100632.28
2018-01-21T10:30:25.541Z,100638.11
2018-01-21T10:31:28.002Z,100636.16
2018-01-21T10:32:30.476Z,100634.58
2018-01-21T10:33:32.933Z,100644.84
2018-01-21T10:34:35.416Z,100644.52
2018-01-21T10:35:37.923Z,100647.11
2018-01-21T10:36:40.401Z,100642.83
2018-01-21T10:37:42.873Z,100647.11
2018-01-21T10:38:45.363Z,100648.89
2018-01-21T10:39:47.857Z,100648.89
2018-01-21T10:40:50.329Z,100653.98
2018-01-21T10:41:52.790Z,100654.64
2018-01-21T10:42:55.270Z,100656.14
2018-01-21T10:43:57.789Z,100659.55
2018-01-21T10:45:00.259Z,100655.91
2018-01-21T10:46:02.715Z,100656.06
2018-01-21T10:47:05.326Z,100665.29
2018-01-21T10:48:07.923Z,100654.70
2018-01-21T10:49:10.396Z,100655.66
2018-01-21T10:50:12.853Z,100663.67
2018-01-21T10:51:15.332Z,100661.25
2018-01-21T10:52:17.798Z,100655.66
2018-01-21T10:53:20.262Z,100656.88
2018-01-21T10:54:22.762Z,100658.81
2018-01-21T10:55:25.233Z,100655.59
2018-01-21T10:56:27.708Z,100654.94
2018-01-21T10:57:30.183Z,100658.66
2018-01-21T10:58:32.670Z,100663.48
2018-01-21T10:59:35.144Z,100661.13
2018-01-21T11:00:43.258Z,100666.95
2018-01-21T11:01:45.719Z,100667.69
2018-01-21T11:02:48.197Z,100659.59
2018-01-21T11:03:50.683Z,100665.83
2018-01-21T11:04:53.160Z,100666.39
2018-01-21T11:05:55.632Z,100661.78
2018-01-21T11:06:58.112Z,100661.70
2018-01-21T11:08:00.573Z,100662.59
2018-01-21T11:09:03.052Z,100657.57
2018-01-21T11:10:05.532Z,100659.56
2018-01-21T11:11:08.004Z,100655.67
2018-01-21T11:12:10.479Z,100661.50
2018-01-21T11:13:12.954Z,100659.39
2018-01-21T11:14:15.432Z,100660.84
2018-01-21T11:15:17.903Z,100665.45
2018-01-21T11:16:20.372Z,100661.78
2018-01-21T11:17:22.843Z,100670.91
2018-01-21T11:18:25.321Z,100666.30
2018-01-21T11:19:27.777Z,100668.56
2018-01-21T11:20:30.252Z,100661.13
2018-01-21T11:21:32.718Z,100663.87
2018-01-21T11:22:35.184Z,100664.16
2018-01-21T11:23:37.646Z,100661.73
2018-01-21T11:24:40.124Z,100666.06
2018-01-21T11:25:42.598Z,100669.78
2018-01-21T11:26:45.186Z,100672.62
2018-01-21T11:27:47.690Z,100668.58
2018-01-21T11:28:50.526Z,100670.63
2018-01-21T11:29:53.064Z,100674.11
2018-01-21T11:30:55.547Z,100669.25
2018-01-21T11:31:58.100Z,100671.69
2018-01-21T11:33:00.688Z,100669.09
2018-01-21T11:34:03.241Z,100670.31
2018-01-21T11:35:05.718Z,100665.94
2018-01-21T11:36:08.231Z,100671.69
2018-01-21T11:37:10.730Z,100671.28
2018-01-21T11:38:13.166Z,100670.14
2018-01-21T11:39:15.648Z,100674.84
2018-01-21T11:40:18.127Z,100665.27
2018-01-21T11:41:20.727Z,100666.55
2018-01-21T11:42:23.199Z,100665.91
2018-01-21T11:43:25.672Z,100667.44
2018-01-21T11:44:28.163Z,100667.20
2018-01-21T11:45:30.641Z,100665.34
2018-01-21T11:46:33.095Z,100668.00
2018-01-21T11:47:35.550Z,100666.63
2018-01-21T11:48:38.011Z,100662.02
2018-01-21T11:49:40.470Z,100665.58
2018-01-21T11:50:43.005Z,100662.34
2018-01-21T11:51:45.591Z,100666.47
2018-01-21T11:52:48.085Z,100663.23
2018-01-21T11:53:50.565Z,100655.27
2018-01-21T11:54:53.040Z,100651.47
2018-01-21T11:55:55.497Z,100657.45
2018-01-21T11:56:57.962Z,100654.22
2018-01-21T11:58:00.437Z,100651.55
2018-01-21T11:59:02.916Z,100657.05
2018-01-21T12:00:05.388Z,100656.40
2018-01-21T12:01:07.858Z,100660.03
2018-01-21T12:02:10.357Z,100661.45